Time;durP1;ratioP1;P1;durP2;ratioP2;P2;SDS_P1;SDS_P2;PMS_P1;PMS_P2;Temp;Humidity;BMP_temperature;BMP_pressure;BME280_temperature;BME280_humidity;BME280_pressure;Samples;Min_cycle;Max_cycle;Signal;HPM_P1;HPM_P2
2021/11/29 00:00:59;;;;;;;37.30;17.73;;;21.00;92.40;;;;;;4196320;28;20040;-72
2021/11/29 00:03:07;;;;;;;27.38;17.48;;;21.00;92.30;;;;;;4195717;28;20044;-72
2021/11/29 00:05:12;;;;;;;30.95;17.60;;;20.70;92.70;;;;;;4171213;28;20099;-71
2021/11/29 00:07:17;;;;;;;30.75;17.92;;;20.90;92.50;;;;;;4193194;28;20106;-71
2021/11/29 00:09:21;;;;;;;31.45;19.50;;;20.80;92.40;;;;;;4195013;28;20074;-71
2021/11/29 00:11:25;;;;;;;29.33;17.90;;;20.70;92.80;;;;;;4194913;28;20139;-72
2021/11/29 00:13:30;;;;;;;35.58;18.80;;;20.90;92.70;;;;;;4196541;28;20059;-72
2021/11/29 00:15:34;;;;;;;34.35;19.15;;;20.80;92.50;;;;;;4194850;28;20048;-71
2021/11/29 00:17:39;;;;;;;30.88;18.40;;;20.90;92.60;;;;;;4193861;28;20139;-72
2021/11/29 00:19:48;;;;;;;33.42;18.10;;;20.90;92.50;;;;;;4192955;28;20054;-72
2021/11/29 00:21:52;;;;;;;32.63;19.23;;;21.00;92.30;;;;;;4193330;28;20377;-72
2021/11/29 00:23:57;;;;;;;28.45;17.88;;;20.90;92.50;;;;;;4210649;28;20072;-71
2021/11/29 00:26:02;;;;;;;29.13;17.92;;;20.80;92.50;;;;;;4190525;28;20051;-70
2021/11/29 00:28:09;;;;;;;26.60;17.25;;;20.90;92.40;;;;;;4189502;28;20099;-70
2021/11/29 00:30:14;;;;;;;28.83;16.55;;;21.00;92.30;;;;;;4194541;28;20136;-70
2021/11/29 00:32:18;;;;;;;25.10;16.83;;;21.00;92.00;;;;;;4194909;28;20422;-70
2021/11/29 00:34:24;;;;;;;28.83;17.58;;;21.20;92.20;;;;;;4195349;28;20509;-70
2021/11/29 00:36:28;;;;;;;26.33;17.80;;;21.00;92.30;;;;;;4192631;28;20054;-70
2021/11/29 00:38:32;;;;;;;28.65;17.60;;;21.10;92.30;;;;;;4195786;28;20079;-70
2021/11/29 00:40:37;;;;;;;28.77;17.83;;;21.10;92.20;;;;;;4195209;28;20056;-70
2021/11/29 00:42:42;;;;;;;26.50;17.70;;;21.00;92.20;;;;;;4193745;28;20106;-70
2021/11/29 00:44:47;;;;;;;25.70;17.13;;;20.90;92.40;;;;;;4195276;28;20086;-70
2021/11/29 00:46:51;;;;;;;25.08;16.65;;;21.00;92.50;;;;;;4194239;28;20036;-70
2021/11/29 00:48:56;;;;;;;26.13;16.23;;;21.10;92.10;;;;;;4195181;28;20045;-70
2021/11/29 00:51:01;;;;;;;24.55;15.63;;;21.10;92.10;;;;;;4194596;28;20090;-70
2021/11/29 00:53:08;;;;;;;23.33;15.05;;;21.10;91.80;;;;;;4204026;28;20036;-70
2021/11/29 00:55:13;;;;;;;25.67;14.90;;;21.20;91.80;;;;;;4187985;28;20072;-70
2021/11/29 00:57:18;;;;;;;24.60;14.30;;;21.20;91.80;;;;;;4193190;28;20052;-70
2021/11/29 00:59:22;;;;;;;24.25;15.65;;;21.20;91.70;;;;;;4195176;28;20068;-70
2021/11/29 01:01:27;;;;;;;25.95;14.25;;;21.10;91.80;;;;;;4193839;28;20080;-71
2021/11/29 01:03:32;;;;;;;22.50;14.85;;;21.30;91.60;;;;;;4193732;28;20545;-70
2021/11/29 01:05:36;;;;;;;19.52;13.68;;;21.30;91.60;;;;;;4193642;28;20100;-70
2021/11/29 01:07:41;;;;;;;24.45;14.65;;;21.30;91.50;;;;;;4194016;28;20052;-71
2021/11/29 01:09:45;;;;;;;21.75;14.10;;;21.20;91.40;;;;;;4194100;28;20463;-71
2021/11/29 01:11:50;;;;;;;24.63;13.45;;;21.30;91.50;;;;;;4185596;28;20511;-73
2021/11/29 01:13:55;;;;;;;26.48;14.75;;;21.40;91.50;;;;;;4192424;28;20044;-74
2021/11/29 01:16:00;;;;;;;21.13;13.52;;;21.30;91.40;;;;;;4195075;28;20495;-74
2021/11/29 01:18:09;;;;;;;25.95;12.70;;;21.40;91.60;;;;;;4176496;28;20098;-72
2021/11/29 01:20:14;;;;;;;21.10;12.75;;;21.60;91.10;;;;;;4194545;28;20162;-70
2021/11/29 01:22:18;;;;;;;23.60;12.68;;;21.60;91.10;;;;;;4194578;28;20155;-70
2021/11/29 01:24:23;;;;;;;26.35;14.10;;;21.60;91.20;;;;;;4194181;28;20445;-70
2021/11/29 01:26:27;;;;;;;22.42;12.38;;;21.70;91.20;;;;;;4193276;28;20398;-71
2021/11/29 01:28:33;;;;;;;20.85;13.25;;;21.70;91.00;;;;;;4192285;28;20044;-71
2021/11/29 01:30:37;;;;;;;23.80;13.05;;;21.70;90.60;;;;;;4193797;28;20632;-70
2021/11/29 01:32:42;;;;;;;22.00;12.10;;;21.80;90.70;;;;;;4193134;28;20127;-70
2021/11/29 01:34:46;;;;;;;19.33;11.50;;;21.70;90.80;;;;;;4190926;28;20407;-70
2021/11/29 01:36:51;;;;;;;20.17;12.95;;;21.60;91.00;;;;;;4191070;28;20056;-71
2021/11/29 01:38:55;;;;;;;23.25;12.90;;;21.60;90.60;;;;;;4194260;28;20392;-69
2021/11/29 01:41:00;;;;;;;17.67;12.20;;;21.80;90.80;;;;;;4193517;28;20337;-69
2021/11/29 01:43:10;;;;;;;19.55;12.85;;;21.80;90.50;;;;;;4191793;28;20066;-70
2021/11/29 01:45:17;;;;;;;22.10;12.52;;;22.00;90.50;;;;;;4190695;28;20037;-70
2021/11/29 01:47:22;;;;;;;20.75;12.13;;;22.10;90.30;;;;;;4190828;28;20063;-70
2021/11/29 01:49:27;;;;;;;19.27;12.60;;;22.20;90.10;;;;;;4194405;28;20040;-70
2021/11/29 01:51:31;;;;;;;25.33;13.27;;;22.30;89.40;;;;;;4192123;28;20052;-70
2021/11/29 01:53:36;;;;;;;21.00;13.00;;;22.20;89.30;;;;;;4194466;28;20071;-70
2021/11/29 01:55:41;;;;;;;24.38;13.27;;;22.20;89.70;;;;;;4191357;28;20044;-70
2021/11/29 01:57:46;;;;;;;22.08;12.23;;;22.10;89.30;;;;;;4193451;28;20040;-70
2021/11/29 01:59:51;;;;;;;25.42;13.27;;;22.30;90.10;;;;;;4194477;28;20521;-69
2021/11/29 02:01:59;;;;;;;26.50;13.25;;;22.40;89.00;;;;;;4192214;28;20044;-71
2021/11/29 02:04:08;;;;;;;28.52;13.50;;;22.50;89.70;;;;;;4193616;28;20034;-70
2021/11/29 02:06:13;;;;;;;24.27;13.05;;;22.70;88.70;;;;;;4192538;28;20465;-70
2021/11/29 02:08:18;;;;;;;21.15;12.90;;;22.70;88.20;;;;;;4193699;28;20048;-70
2021/11/29 02:10:23;;;;;;;25.15;12.77;;;22.90;88.20;;;;;;4193597;28;20101;-70
2021/11/29 02:12:28;;;;;;;23.30;11.73;;;23.00;88.50;;;;;;4195401;28;20033;-70
2021/11/29 02:14:36;;;;;;;19.90;11.77;;;23.00;86.80;;;;;;4193918;28;20044;-70
2021/11/29 02:16:40;;;;;;;19.42;11.70;;;23.00;86.10;;;;;;4138565;28;20238;-71
2021/11/29 02:18:45;;;;;;;21.38;11.38;;;23.00;86.90;;;;;;4139781;28;20054;-71
2021/11/29 02:21:03;;;;;;;23.63;10.98;;;23.10;86.70;;;;;;4105314;28;20059;-70
2021/11/29 02:23:08;;;;;;;21.70;10.98;;;23.10;86.80;;;;;;4107194;28;20110;-69
2021/11/29 02:25:15;;;;;;;18.55;9.82;;;23.20;86.40;;;;;;4105298;28;20053;-69
2021/11/29 02:27:20;;;;;;;18.23;9.90;;;23.40;86.80;;;;;;4104115;28;20043;-69
2021/11/29 02:29:24;;;;;;;15.32;9.40;;;23.40;85.80;;;;;;4101767;28;20047;-69
2021/11/29 02:31:34;;;;;;;17.77;9.93;;;23.50;85.50;;;;;;4105153;28;20089;-68
2021/11/29 02:33:40;;;;;;;10.95;7.93;;;23.60;84.10;;;;;;4113763;28;20070;-69
2021/11/29 02:35:45;;;;;;;17.27;8.02;;;23.60;82.70;;;;;;4104662;28;20066;-68
2021/11/29 02:37:52;;;;;;;17.20;8.02;;;23.70;82.30;;;;;;4103714;28;20118;-70
2021/11/29 02:39:59;;;;;;;20.10;8.95;;;23.80;82.90;;;;;;4097170;29;20058;-69
2021/11/29 02:42:06;;;;;;;19.40;7.95;;;23.90;81.30;;;;;;4111765;28;20531;-69
2021/11/29 02:44:10;;;;;;;13.15;7.47;;;23.90;80.80;;;;;;4110925;28;20098;-69
2021/11/29 02:46:15;;;;;;;14.48;7.70;;;24.00;80.50;;;;;;4103032;28;20058;-68
2021/11/29 02:48:19;;;;;;;13.23;8.30;;;24.00;80.70;;;;;;4103244;28;20070;-69
2021/11/29 02:50:24;;;;;;;13.63;7.80;;;24.10;80.40;;;;;;4094515;29;20047;-69
2021/11/29 02:52:29;;;;;;;17.42;7.88;;;24.10;80.40;;;;;;4116618;28;20042;-69
2021/11/29 02:54:35;;;;;;;13.65;7.38;;;24.20;80.60;;;;;;4142976;28;20049;-69
2021/11/29 02:56:41;;;;;;;11.50;6.65;;;24.30;80.50;;;;;;4158562;28;20355;-69
2021/11/29 02:58:45;;;;;;;11.90;7.22;;;24.40;80.10;;;;;;4122813;28;20050;-69
2021/11/29 03:00:50;;;;;;;12.98;6.95;;;24.50;78.90;;;;;;4160961;28;20111;-69
2021/11/29 03:03:08;;;;;;;18.00;7.47;;;24.60;79.00;;;;;;4158273;28;20053;-68
2021/11/29 03:05:12;;;;;;;15.02;7.07;;;24.60;78.20;;;;;;4162459;28;20037;-69
2021/11/29 03:07:18;;;;;;;14.45;7.63;;;24.70;79.10;;;;;;4161237;28;20488;-69
2021/11/29 03:09:23;;;;;;;11.70;7.15;;;24.80;77.70;;;;;;4172719;28;20038;-69
2021/11/29 03:11:28;;;;;;;13.32;6.72;;;24.80;78.00;;;;;;4155193;28;20764;-69
2021/11/29 03:13:33;;;;;;;12.55;6.68;;;24.90;77.90;;;;;;4159740;28;20091;-70
2021/11/29 03:15:38;;;;;;;9.80;6.80;;;24.90;78.50;;;;;;4159906;28;20160;-70
2021/11/29 03:17:57;;;;;;;10.68;6.97;;;24.90;77.70;;;;;;4164054;28;20046;-69
2021/11/29 03:20:16;;;;;;;13.23;7.00;;;25.00;77.50;;;;;;4159773;28;20132;-70
2021/11/29 03:22:27;;;;;;;14.77;6.40;;;25.10;77.30;;;;;;4176812;28;20043;-69
2021/11/29 03:24:36;;;;;;;13.32;6.90;;;25.10;76.80;;;;;;4179227;28;20049;-69
2021/11/29 03:26:41;;;;;;;11.13;6.57;;;25.20;76.90;;;;;;4178109;28;20094;-69
2021/11/29 03:28:47;;;;;;;11.60;6.32;;;25.20;76.70;;;;;;4178135;28;20049;-69
2021/11/29 03:30:52;;;;;;;11.25;6.55;;;25.20;76.40;;;;;;4179160;28;20107;-70
2021/11/29 03:32:58;;;;;;;12.40;5.82;;;25.40;75.60;;;;;;4177648;28;20115;-70
2021/11/29 03:35:04;;;;;;;14.63;7.30;;;25.50;74.80;;;;;;4179446;28;20051;-70
2021/11/29 03:37:09;;;;;;;13.55;6.97;;;25.40;75.40;;;;;;4177659;28;20049;-69
2021/11/29 03:39:23;;;;;;;13.27;6.80;;;25.40;75.20;;;;;;4179829;28;20037;-70
2021/11/29 03:41:28;;;;;;;17.20;7.03;;;25.60;75.90;;;;;;4176679;28;20392;-69
2021/11/29 03:43:32;;;;;;;10.98;6.22;;;25.70;74.80;;;;;;4178092;28;20045;-71
2021/11/29 03:45:37;;;;;;;11.27;6.90;;;25.60;74.90;;;;;;4178941;28;20041;-70
2021/11/29 03:47:42;;;;;;;11.07;7.20;;;25.60;75.60;;;;;;4175011;28;20195;-69
2021/11/29 03:49:46;;;;;;;15.73;7.63;;;25.70;75.90;;;;;;4182052;28;20041;-69
2021/11/29 03:51:51;;;;;;;12.45;7.35;;;25.70;75.60;;;;;;4177402;28;20041;-70
2021/11/29 03:53:56;;;;;;;17.13;7.15;;;25.90;75.40;;;;;;4179765;28;20052;-69
2021/11/29 03:56:01;;;;;;;11.82;7.40;;;26.00;75.20;;;;;;4178199;28;20048;-70
2021/11/29 03:58:06;;;;;;;12.75;6.97;;;26.10;75.00;;;;;;4175338;28;20045;-70
2021/11/29 04:00:11;;;;;;;11.10;6.22;;;26.10;74.40;;;;;;4178545;28;20045;-70
2021/11/29 04:02:16;;;;;;;13.88;6.57;;;26.10;73.80;;;;;;4173640;28;20126;-71
2021/11/29 04:04:20;;;;;;;13.82;7.13;;;26.40;74.90;;;;;;4178716;28;20039;-70
2021/11/29 04:06:25;;;;;;;13.15;6.68;;;26.40;73.00;;;;;;4192999;28;20127;-69
2021/11/29 04:08:29;;;;;;;20.23;6.68;;;26.40;74.40;;;;;;4195022;28;20048;-70
2021/11/29 04:10:33;;;;;;;9.35;7.10;;;26.40;74.40;;;;;;4194621;28;20052;-70
2021/11/29 04:12:39;;;;;;;11.93;6.95;;;26.50;74.60;;;;;;4193674;28;20152;-71
2021/11/29 04:14:44;;;;;;;11.88;6.70;;;26.50;74.50;;;;;;4194643;28;20049;-70
2021/11/29 04:16:48;;;;;;;11.65;7.13;;;26.60;74.20;;;;;;4193208;28;20052;-69
2021/11/29 04:18:53;;;;;;;16.15;6.88;;;26.50;73.50;;;;;;4195368;28;20060;-70
2021/11/29 04:20:58;;;;;;;11.68;6.60;;;26.50;74.30;;;;;;4194242;28;20129;-70
2021/11/29 04:23:02;;;;;;;10.20;6.57;;;26.60;73.20;;;;;;4196217;28;20040;-70
2021/11/29 04:25:09;;;;;;;9.88;6.95;;;26.60;73.60;;;;;;4192606;28;20521;-69
2021/11/29 04:27:16;;;;;;;12.90;6.63;;;26.70;72.90;;;;;;4193637;28;20040;-69
2021/11/29 04:29:23;;;;;;;16.00;6.70;;;26.70;73.10;;;;;;4194800;28;20048;-69
2021/11/29 04:31:31;;;;;;;12.10;6.60;;;26.70;73.60;;;;;;4193146;28;20106;-69
2021/11/29 04:33:38;;;;;;;11.02;7.22;;;26.80;73.10;;;;;;4194440;28;20040;-69
2021/11/29 04:35:42;;;;;;;11.80;6.75;;;26.80;73.50;;;;;;4193560;28;20062;-69
2021/11/29 04:37:46;;;;;;;15.18;6.57;;;26.90;72.40;;;;;;4192495;28;20616;-69
2021/11/29 04:39:51;;;;;;;8.60;6.40;;;26.90;72.70;;;;;;4194768;28;20568;-69
2021/11/29 04:41:55;;;;;;;12.15;6.50;;;26.90;73.20;;;;;;4192411;28;20048;-70
2021/11/29 04:44:01;;;;;;;12.00;6.28;;;27.00;73.00;;;;;;4194765;28;20067;-69
2021/11/29 04:46:06;;;;;;;9.93;6.60;;;27.10;73.30;;;;;;4193057;28;20071;-70
2021/11/29 04:48:11;;;;;;;11.23;6.47;;;27.00;73.10;;;;;;4193821;28;20508;-70
2021/11/29 04:50:15;;;;;;;16.63;6.95;;;27.00;73.20;;;;;;4193329;28;20110;-70
2021/11/29 04:52:20;;;;;;;15.88;6.95;;;27.10;72.50;;;;;;4193181;28;20418;-69
2021/11/29 04:54:25;;;;;;;11.07;6.75;;;27.20;73.10;;;;;;4193207;28;20060;-70
2021/11/29 04:56:30;;;;;;;9.65;6.63;;;27.40;72.00;;;;;;4193114;28;20105;-73
2021/11/29 04:58:35;;;;;;;16.13;7.18;;;27.20;72.20;;;;;;4191988;28;20140;-73
2021/11/29 05:00:39;;;;;;;8.88;7.00;;;27.20;73.00;;;;;;4194298;28;20048;-72
2021/11/29 05:02:45;;;;;;;11.07;6.88;;;27.30;74.20;;;;;;4193453;28;20068;-72
2021/11/29 05:04:49;;;;;;;10.80;6.60;;;27.30;71.90;;;;;;4193674;28;20514;-72
2021/11/29 05:06:55;;;;;;;11.80;6.57;;;27.40;72.20;;;;;;4185400;28;20059;-72
2021/11/29 05:09:00;;;;;;;11.75;6.95;;;27.30;71.60;;;;;;4186346;28;20046;-71
2021/11/29 05:11:05;;;;;;;10.18;6.88;;;27.30;72.30;;;;;;4193985;28;20131;-71
2021/11/29 05:13:09;;;;;;;12.85;7.32;;;27.40;72.70;;;;;;4192880;28;20044;-71
2021/11/29 05:15:16;;;;;;;10.18;6.07;;;27.40;72.50;;;;;;4195428;28;20450;-71
2021/11/29 05:17:21;;;;;;;15.50;6.40;;;27.50;72.20;;;;;;4193795;28;20638;-71
2021/11/29 05:19:26;;;;;;;11.85;6.60;;;27.50;72.40;;;;;;4192892;28;20055;-71
2021/11/29 05:21:33;;;;;;;10.52;6.60;;;27.50;72.20;;;;;;4177833;28;20483;-71
2021/11/29 05:23:37;;;;;;;12.23;6.18;;;27.50;71.00;;;;;;4193883;28;20045;-71
2021/11/29 05:25:44;;;;;;;9.75;6.32;;;27.60;72.90;;;;;;4196254;28;20048;-71
2021/11/29 05:27:48;;;;;;;14.02;5.97;;;27.60;72.50;;;;;;4192661;28;20088;-71
2021/11/29 05:29:54;;;;;;;14.50;6.50;;;27.80;72.30;;;;;;4192654;28;20044;-73
2021/11/29 05:31:59;;;;;;;10.60;6.25;;;27.70;71.30;;;;;;4193159;28;20044;-71
2021/11/29 05:34:04;;;;;;;10.90;6.75;;;27.80;71.40;;;;;;4194826;28;20049;-71
2021/11/29 05:36:08;;;;;;;17.17;6.85;;;27.70;71.50;;;;;;4193288;28;20040;-71
2021/11/29 05:38:13;;;;;;;8.50;6.80;;;27.70;72.50;;;;;;4193640;28;20097;-71
2021/11/29 05:40:18;;;;;;;11.35;6.30;;;27.90;71.00;;;;;;4191195;28;20052;-71
2021/11/29 05:42:23;;;;;;;10.68;5.95;;;27.90;70.70;;;;;;4191994;28;20052;-71
2021/11/29 05:44:28;;;;;;;13.18;6.88;;;27.90;70.90;;;;;;4199636;28;20151;-72
2021/11/29 05:46:34;;;;;;;10.35;6.28;;;28.00;71.40;;;;;;4200269;28;20097;-71
2021/11/29 05:48:40;;;;;;;11.63;6.53;;;28.10;70.90;;;;;;4205542;28;20097;-71
2021/11/29 05:50:45;;;;;;;10.82;6.15;;;28.10;71.20;;;;;;4195646;28;20051;-71
2021/11/29 05:52:50;;;;;;;8.88;6.18;;;28.10;70.90;;;;;;4192098;28;20052;-71
2021/11/29 05:54:54;;;;;;;12.40;6.10;;;28.00;71.10;;;;;;4196223;28;20569;-70
2021/11/29 05:56:59;;;;;;;12.63;6.43;;;28.10;70.70;;;;;;4202225;28;20109;-70
2021/11/29 05:59:03;;;;;;;10.82;6.22;;;28.10;71.80;;;;;;4204757;28;20468;-69
2021/11/29 06:01:08;;;;;;;8.90;6.15;;;28.10;71.30;;;;;;4201711;28;20052;-70
2021/11/29 06:03:13;;;;;;;12.32;6.32;;;28.20;71.30;;;;;;4199985;28;20468;-70
2021/11/29 06:05:19;;;;;;;9.63;5.95;;;28.20;71.00;;;;;;4194283;28;20531;-70
2021/11/29 06:07:24;;;;;;;9.43;5.60;;;28.10;71.10;;;;;;4199471;28;20134;-71
2021/11/29 06:09:29;;;;;;;14.25;5.78;;;28.10;70.90;;;;;;4200554;28;20415;-70
2021/11/29 06:11:35;;;;;;;22.38;7.82;;;28.20;71.20;;;;;;4204083;28;20036;-72
2021/11/29 06:13:39;;;;;;;14.43;8.02;;;28.30;70.10;;;;;;4200042;28;20166;-73
2021/11/29 06:15:44;;;;;;;15.93;6.90;;;28.50;71.10;;;;;;4196220;28;20054;-72
2021/11/29 06:17:49;;;;;;;9.10;6.38;;;28.50;70.60;;;;;;4197213;28;20072;-72
2021/11/29 06:19:54;;;;;;;11.80;6.53;;;28.50;69.10;;;;;;4201791;28;20534;-71
2021/11/29 06:21:59;;;;;;;9.45;6.68;;;28.50;70.10;;;;;;4198267;28;20048;-70
2021/11/29 06:24:04;;;;;;;12.63;6.15;;;28.40;69.90;;;;;;4201055;28;20052;-70
2021/11/29 06:26:09;;;;;;;11.10;6.57;;;28.60;69.90;;;;;;4202344;28;20057;-70
2021/11/29 06:28:14;;;;;;;8.45;6.07;;;28.50;69.40;;;;;;4199451;28;20049;-70
2021/11/29 06:30:19;;;;;;;9.80;6.50;;;28.40;69.70;;;;;;4193437;28;20059;-70
2021/11/29 06:32:24;;;;;;;10.90;5.80;;;28.50;70.20;;;;;;4191416;28;20057;-70
2021/11/29 06:34:28;;;;;;;14.05;6.60;;;28.60;69.60;;;;;;4195692;28;20052;-70
2021/11/29 06:36:33;;;;;;;10.73;6.30;;;28.60;69.50;;;;;;4194192;28;20052;-71
2021/11/29 06:38:38;;;;;;;10.15;6.05;;;28.60;68.80;;;;;;4194766;28;20457;-71
2021/11/29 06:40:49;;;;;;;8.98;6.03;;;28.60;68.60;;;;;;4191608;28;20060;-70
2021/11/29 06:42:54;;;;;;;11.00;5.30;;;28.60;69.40;;;;;;4193918;28;20053;-70
2021/11/29 06:44:58;;;;;;;11.40;5.53;;;28.70;69.30;;;;;;4197856;28;20046;-70
2021/11/29 06:47:03;;;;;;;8.65;5.45;;;28.80;69.10;;;;;;4198079;28;20048;-70
2021/11/29 06:49:08;;;;;;;10.40;5.95;;;28.90;69.30;;;;;;4197278;28;20037;-69
2021/11/29 06:51:13;;;;;;;9.65;5.85;;;28.90;69.00;;;;;;4197459;28;20436;-69
2021/11/29 06:53:17;;;;;;;13.45;6.00;;;28.80;68.00;;;;;;4195803;28;20503;-69
2021/11/29 06:55:22;;;;;;;12.85;6.00;;;28.80;69.50;;;;;;4195713;28;20037;-70
2021/11/29 06:57:27;;;;;;;9.60;6.20;;;28.90;68.70;;;;;;4193454;28;20110;-69
2021/11/29 06:59:32;;;;;;;14.43;6.30;;;28.90;68.70;;;;;;4193844;28;20423;-69
2021/11/29 07:01:36;;;;;;;10.10;5.82;;;28.90;69.30;;;;;;4194440;28;20401;-69
2021/11/29 07:03:42;;;;;;;8.07;5.30;;;28.90;68.50;;;;;;4194514;28;20131;-69
2021/11/29 07:05:50;;;;;;;9.30;5.30;;;29.00;68.50;;;;;;4193052;28;20056;-69
2021/11/29 07:07:56;;;;;;;10.00;5.40;;;29.00;68.20;;;;;;4196360;28;20053;-69
2021/11/29 07:10:01;;;;;;;10.10;5.85;;;29.00;68.50;;;;;;4196548;28;20040;-69
2021/11/29 07:12:06;;;;;;;13.35;6.10;;;29.10;68.30;;;;;;4191993;28;20124;-69
2021/11/29 07:14:11;;;;;;;12.13;5.88;;;29.00;68.90;;;;;;4160072;28;20049;-69
2021/11/29 07:16:16;;;;;;;11.00;5.72;;;29.10;68.00;;;;;;4165114;28;20055;-69
2021/11/29 07:18:21;;;;;;;13.32;5.40;;;29.10;68.00;;;;;;4161948;28;20116;-69
2021/11/29 07:20:25;;;;;;;10.27;5.53;;;29.00;67.60;;;;;;4162564;28;20045;-69
2021/11/29 07:22:30;;;;;;;8.55;5.60;;;29.00;68.60;;;;;;4159970;28;20045;-70
2021/11/29 07:24:35;;;;;;;9.30;6.03;;;29.10;67.80;;;;;;4162972;28;20045;-69
2021/11/29 07:26:42;;;;;;;9.32;5.63;;;29.10;67.30;;;;;;4156286;28;20041;-69
2021/11/29 07:28:46;;;;;;;9.98;5.38;;;29.10;67.30;;;;;;4161225;28;20099;-69
2021/11/29 07:30:51;;;;;;;10.35;5.88;;;29.10;67.50;;;;;;4159077;28;20536;-70
2021/11/29 07:32:57;;;;;;;8.40;5.20;;;29.00;67.20;;;;;;4159915;28;20041;-69
2021/11/29 07:35:02;;;;;;;7.10;5.18;;;29.10;67.70;;;;;;4159093;28;20053;-69
2021/11/29 07:37:06;;;;;;;9.13;6.03;;;29.10;67.50;;;;;;4158140;28;20516;-68
2021/11/29 07:39:12;;;;;;;11.05;7.38;;;29.10;67.50;;;;;;4152054;28;20057;-69
2021/11/29 07:41:16;;;;;;;8.52;6.05;;;29.20;66.70;;;;;;4157741;28;20053;-69
2021/11/29 07:43:21;;;;;;;12.50;5.90;;;29.30;66.40;;;;;;4158560;28;20049;-69
2021/11/29 07:45:25;;;;;;;10.88;5.97;;;29.20;65.70;;;;;;4177491;28;20139;-69
2021/11/29 07:47:30;;;;;;;12.48;5.90;;;29.20;66.10;;;;;;4176313;28;20044;-69
2021/11/29 07:49:35;;;;;;;9.95;5.50;;;29.20;67.10;;;;;;4193219;28;20040;-72
2021/11/29 07:51:41;;;;;;;10.27;5.53;;;29.20;65.80;;;;;;4192112;28;20119;-69
2021/11/29 07:53:46;;;;;;;10.20;6.03;;;29.20;66.10;;;;;;4198542;28;20090;-69
2021/11/29 07:55:50;;;;;;;7.93;5.03;;;29.20;66.50;;;;;;4196258;28;20078;-69
2021/11/29 07:57:55;;;;;;;12.30;6.05;;;29.20;66.30;;;;;;4198654;28;20059;-69
2021/11/29 08:00:04;;;;;;;8.15;4.82;;;29.20;66.40;;;;;;4196423;28;20041;-69
2021/11/29 08:02:08;;;;;;;8.90;5.10;;;29.20;66.20;;;;;;4194735;28;20052;-69
2021/11/29 08:04:13;;;;;;;6.97;5.25;;;29.20;65.50;;;;;;4198183;28;20113;-69
2021/11/29 08:06:17;;;;;;;9.70;6.30;;;29.20;65.40;;;;;;4197684;28;20102;-69
2021/11/29 08:08:22;;;;;;;12.20;6.80;;;29.20;65.70;;;;;;4200254;28;20044;-69
2021/11/29 08:10:27;;;;;;;17.58;10.00;;;29.20;65.20;;;;;;4199961;28;20068;-69
2021/11/29 08:12:31;;;;;;;11.57;7.30;;;29.30;66.30;;;;;;4199132;28;20087;-69
2021/11/29 08:14:36;;;;;;;11.50;6.78;;;29.30;66.00;;;;;;4203326;28;20089;-69
2021/11/29 08:16:40;;;;;;;8.30;5.70;;;29.30;65.80;;;;;;4199994;28;20048;-69
2021/11/29 08:18:45;;;;;;;11.95;5.35;;;29.30;64.50;;;;;;4203872;28;20410;-69
2021/11/29 08:21:09;;;;;;;8.38;5.55;;;29.30;65.10;;;;;;4199905;28;20507;-70
2021/11/29 08:23:15;;;;;;;6.13;4.90;;;29.30;64.60;;;;;;4195742;28;20076;-70
2021/11/29 08:25:20;;;;;;;13.77;6.13;;;29.20;64.80;;;;;;4203567;28;20566;-70
2021/11/29 08:27:25;;;;;;;8.55;5.50;;;29.30;65.60;;;;;;4202126;28;20094;-70
2021/11/29 08:29:30;;;;;;;7.63;5.07;;;29.20;65.10;;;;;;4203572;28;20044;-70
2021/11/29 08:31:38;;;;;;;7.95;5.32;;;29.30;65.20;;;;;;4201534;28;20498;-70
2021/11/29 08:33:43;;;;;;;8.73;5.53;;;29.30;65.60;;;;;;4203964;28;20044;-70
2021/11/29 08:35:48;;;;;;;11.18;5.40;;;29.30;66.80;;;;;;4198964;28;20082;-70
2021/11/29 08:37:54;;;;;;;12.95;6.00;;;29.30;66.10;;;;;;4200212;28;20062;-70
2021/11/29 08:39:59;;;;;;;10.25;5.72;;;29.30;66.10;;;;;;4204158;28;20049;-70
2021/11/29 08:42:04;;;;;;;12.60;5.53;;;29.30;66.10;;;;;;4201253;28;20485;-70
2021/11/29 08:44:08;;;;;;;9.00;5.13;;;29.30;65.40;;;;;;4204270;28;20131;-70
2021/11/29 08:46:13;;;;;;;13.02;5.95;;;29.40;65.50;;;;;;4201367;28;20048;-70
2021/11/29 08:48:18;;;;;;;9.85;5.65;;;29.30;65.00;;;;;;4201247;28;20036;-70
2021/11/29 08:50:23;;;;;;;11.20;5.93;;;29.20;65.40;;;;;;4203279;28;20048;-70
2021/11/29 08:52:35;;;;;;;8.95;6.10;;;29.30;65.40;;;;;;4201755;28;20036;-70
2021/11/29 08:54:40;;;;;;;12.70;5.95;;;29.20;65.20;;;;;;4199722;28;20055;-70
2021/11/29 08:56:46;;;;;;;13.95;5.93;;;29.30;65.90;;;;;;4201892;28;20097;-70
2021/11/29 08:58:51;;;;;;;9.68;5.32;;;29.20;64.90;;;;;;4199848;28;20056;-71
2021/11/29 09:00:56;;;;;;;13.88;5.53;;;29.20;65.00;;;;;;4201939;28;20051;-70
2021/11/29 09:03:03;;;;;;;13.63;5.35;;;29.20;65.40;;;;;;4203229;28;20063;-70
2021/11/29 09:05:09;;;;;;;15.50;6.00;;;29.30;65.40;;;;;;4203156;28;20127;-70
2021/11/29 09:07:15;;;;;;;12.57;5.40;;;29.20;66.10;;;;;;4200887;28;20427;-70
2021/11/29 09:09:39;;;;;;;11.38;5.50;;;29.20;66.00;;;;;;4172108;28;20052;-70
2021/11/29 09:11:44;;;;;;;9.07;6.38;;;29.20;65.60;;;;;;4201462;28;20506;-70
2021/11/29 09:14:00;;;;;;;10.57;6.30;;;29.20;65.50;;;;;;4198641;28;20048;-70
2021/11/29 09:16:25;;;;;;;13.15;6.13;;;29.20;65.50;;;;;;4182673;28;20099;-70
2021/11/29 09:18:49;;;;;;;11.60;7.97;;;29.20;66.20;;;;;;4188693;28;20036;-70
2021/11/29 09:21:14;;;;;;;17.42;12.07;;;29.20;66.00;;;;;;4186241;28;20152;-70
2021/11/29 09:23:38;;;;;;;41.85;30.83;;;29.10;66.10;;;;;;4173132;28;20041;-71
2021/11/29 09:26:03;;;;;;;49.33;36.15;;;29.10;66.20;;;;;;4183177;28;20048;-70
2021/11/29 09:28:28;;;;;;;20.50;13.88;;;29.10;66.60;;;;;;4181392;28;20041;-70
2021/11/29 09:30:53;;;;;;;13.88;7.55;;;29.10;66.60;;;;;;4186847;28;20506;-70
2021/11/29 09:33:17;;;;;;;12.18;8.45;;;29.00;66.30;;;;;;4184511;28;20044;-70
2021/11/29 09:35:41;;;;;;;30.35;11.45;;;29.00;66.80;;;;;;4184939;28;20056;-70
2021/11/29 09:38:06;;;;;;;18.98;9.55;;;29.00;66.70;;;;;;4181471;28;20152;-70
2021/11/29 09:40:34;;;;;;;14.00;9.35;;;29.00;66.60;;;;;;4175363;28;20300;-70
2021/11/29 09:42:58;;;;;;;13.00;8.73;;;29.00;67.10;;;;;;4189601;28;20651;-70
2021/11/29 09:45:24;;;;;;;14.65;8.52;;;28.90;67.30;;;;;;4185257;28;20052;-70
2021/11/29 09:47:48;;;;;;;12.65;7.90;;;28.90;67.30;;;;;;4181288;28;20037;-70
2021/11/29 09:50:13;;;;;;;19.17;8.30;;;28.90;67.30;;;;;;4182783;28;20115;-69
2021/11/29 09:52:37;;;;;;;13.75;7.57;;;28.90;67.40;;;;;;4180751;28;20056;-69
2021/11/29 09:55:02;;;;;;;16.95;8.07;;;28.80;67.70;;;;;;4186480;28;20051;-70
2021/11/29 09:57:27;;;;;;;13.25;8.20;;;28.80;68.10;;;;;;4182748;28;20053;-69
2021/11/29 09:59:51;;;;;;;15.15;8.48;;;28.80;68.70;;;;;;4184189;28;20136;-71
2021/11/29 10:02:15;;;;;;;17.33;8.15;;;28.80;69.10;;;;;;4183433;28;20052;-70
2021/11/29 10:04:46;;;;;;;11.35;8.05;;;28.70;69.50;;;;;;4179744;28;20466;-70
2021/11/29 10:07:11;;;;;;;18.30;8.63;;;28.60;69.60;;;;;;4182539;28;20048;-70
2021/11/29 10:09:37;;;;;;;11.95;8.55;;;28.70;70.10;;;;;;4181369;28;20530;-70
2021/11/29 10:12:20;;;;;;;15.52;8.80;;;28.60;70.20;;;;;;4185577;28;20162;-70
2021/11/29 10:14:45;;;;;;;17.73;8.75;;;28.60;70.40;;;;;;4184511;28;20045;-70
2021/11/29 10:17:09;;;;;;;14.52;8.32;;;28.50;70.40;;;;;;4173892;28;20056;-70
2021/11/29 10:19:35;;;;;;;27.05;10.75;;;28.50;70.60;;;;;;4184400;28;20057;-70
2021/11/29 10:22:12;;;;;;;20.02;11.65;;;28.40;70.80;;;;;;4182382;28;20061;-70
2021/11/29 10:24:37;;;;;;;16.17;11.52;;;28.40;70.90;;;;;;4186786;28;20053;-70
2021/11/29 10:27:01;;;;;;;22.15;10.95;;;28.30;70.90;;;;;;4183936;28;20511;-70
2021/11/29 10:29:26;;;;;;;17.80;11.30;;;28.30;70.90;;;;;;4182944;28;20239;-70
2021/11/29 10:31:53;;;;;;;17.83;10.25;;;28.30;71.10;;;;;;4185994;28;20048;-70
2021/11/29 10:34:27;;;;;;;14.48;9.45;;;28.20;71.20;;;;;;4179640;28;20053;-70
2021/11/29 10:36:55;;;;;;;;;;;28.20;71.40;;;;;;4179176;28;20092;-69
2021/11/29 10:39:22;;;;;;;18.45;10.10;;;28.20;71.70;;;;;;4189756;28;20339;-70
2021/11/29 10:41:50;;;;;;;16.95;9.05;;;28.10;71.60;;;;;;4174579;28;20065;-70
2021/11/29 10:44:18;;;;;;;28.10;10.27;;;28.10;71.90;;;;;;4190707;28;20488;-70
2021/11/29 10:46:43;;;;;;;31.17;10.30;;;28.10;71.90;;;;;;4195354;28;20142;-70
2021/11/29 10:49:11;;;;;;;28.58;12.48;;;28.10;72.10;;;;;;4180885;28;20053;-70
2021/11/29 10:51:37;;;;;;;25.60;13.68;;;28.10;72.20;;;;;;4182155;28;20127;-69
2021/11/29 10:54:04;;;;;;;22.10;11.65;;;28.00;72.50;;;;;;4187958;28;20794;-69
2021/11/29 10:56:30;;;;;;;21.02;10.95;;;28.00;72.50;;;;;;4185421;28;20099;-70
2021/11/29 10:58:56;;;;;;;19.92;10.75;;;28.00;72.50;;;;;;4187911;28;20119;-69